Terminal Aerodrome Forecast
Issued by NWS

Home | Current Version | Previous Version | Text Only | Print | Product List | Glossary On
Versions: 1 2 3 4 5 6 7 8 9 10 11 12 13 14 15
748
FTAK31 PAJN 041140
TAFAWG
TAF
PAWG 041140Z 0412/0512 12005KT P6SM VCSH OVC050
     FM041400 13005KT P6SM VCSH BKN035 OVC050
      TEMPO 0415/0419 -SHRA
     FM041900 28005KT P6SM -SHRA OVC050
     FM050000 29007KT P6SM VCSH BKN070
     FM050300 VRB05KT P6SM BKN070
     FM050700 12004KT P6SM BKN070
      AMD LTD TO CLD VIS AND WIND 0412/0415=

USA.gov is the U.S. government's official web portal to all federal, state and local government web resources and services.